Baxter, Tennessee
Current Conditions -  °F | °C
As of 1:55 AM on Wednesday 22 Oct 2014 (Local Time) from KSRB Reporting Station
Overcast Overcast  
Wind Chill: 37°   Ceiling: 500
Heat Index: 37°   Visibility: 0.75mi
Dew Point: 37°   Wind: 0mph
Humidity: 100%   Direction: NA
Pressure: 30.12"   Gusts: NA
Location:  36.15°N, 85.64°W
Report Text: KSRB 220655Z AUTO 00000KT 3/4SM VV005 03/03 A3012 RMK
Loading
Personal Weather Stations






























Interactive Weather Map
Tropical Storm Tracking
New forecast layout! Learn more

10-Day Weather Forecast

Advertisements
Track Severe Weather on mobile